createdAt,value
2023-03-05T00:00:24.428Z,100113.61
2023-03-05T00:05:48.127Z,100108.65
2023-03-05T00:11:03.970Z,100103.45
2023-03-05T00:16:13.835Z,100099.37
2023-03-05T00:21:23.908Z,100103.64
2023-03-05T00:26:28.496Z,100101.14
2023-03-05T00:31:34.536Z,100092.69
2023-03-05T00:36:44.218Z,100087.10
2023-03-05T00:41:49.978Z,100079.44
2023-03-05T00:46:54.314Z,100075.94
2023-03-05T00:51:59.400Z,100061.60
2023-03-05T00:57:06.127Z,100059.57
2023-03-05T01:02:11.623Z,100051.95
2023-03-05T01:07:16.006Z,100050.63
2023-03-05T01:12:20.598Z,100045.72
2023-03-05T01:17:24.768Z,100046.39
2023-03-05T01:22:30.270Z,100034.20
2023-03-05T01:27:35.812Z,100029.92
2023-03-05T01:32:40.154Z,100021.50
2023-03-05T01:37:44.900Z,100018.17
2023-03-05T01:43:16.880Z,100016.80
2023-03-05T01:48:21.131Z,100016.77
2023-03-05T01:53:25.614Z,100011.05
2023-03-05T01:58:30.523Z,100007.48
2023-03-05T02:03:35.242Z,100000.26
2023-03-05T02:08:39.544Z,99999.98
2023-03-05T02:13:43.301Z,99994.48
2023-03-05T02:18:47.501Z,99996.74
2023-03-05T02:23:52.823Z,100001.27
2023-03-05T02:29:01.852Z,99999.20
2023-03-05T02:34:06.826Z,100002.33
2023-03-05T02:39:11.650Z,99990.84
2023-03-05T02:44:16.133Z,99982.49
2023-03-05T02:49:22.568Z,99977.23
2023-03-05T02:54:30.538Z,99973.36
2023-03-05T02:59:36.158Z,99969.68
2023-03-05T03:04:40.865Z,99963.70
2023-03-05T03:09:46.904Z,99959.25
2023-03-05T03:14:51.494Z,99955.66
2023-03-05T03:19:57.391Z,99953.64
2023-03-05T03:25:02.675Z,99946.10
2023-03-05T03:30:08.294Z,99936.36
2023-03-05T03:35:13.893Z,99933.71
2023-03-05T03:40:18.831Z,99925.25
2023-03-05T03:45:23.645Z,99917.58
2023-03-05T03:50:27.968Z,99909.29
2023-03-05T03:55:33.076Z,99898.27
2023-03-05T04:00:40.521Z,99889.98
2023-03-05T04:05:46.167Z,99886.08
2023-03-05T04:10:49.867Z,99881.69
2023-03-05T04:15:54.804Z,99878.44
2023-03-05T04:20:59.384Z,99873.02
2023-03-05T04:26:04.110Z,99869.10
2023-03-05T04:31:09.133Z,99859.73
2023-03-05T04:36:13.572Z,99845.11
2023-03-05T04:41:17.899Z,99841.23
2023-03-05T04:46:23.443Z,99837.48
2023-03-05T04:51:28.131Z,99832.32
2023-03-05T04:56:32.868Z,99826.79
2023-03-05T05:01:38.455Z,99824.89
2023-03-05T05:06:42.583Z,99821.97
2023-03-05T05:11:47.142Z,99820.30
2023-03-05T05:16:51.958Z,99821.63
2023-03-05T05:21:56.373Z,99826.64
2023-03-05T05:27:00.565Z,99823.94
2023-03-05T05:32:05.634Z,99819.70
2023-03-05T05:37:09.894Z,99814.78
2023-03-05T05:42:22.933Z,99810.02
2023-03-05T05:47:27.318Z,99804.63
2023-03-05T05:52:31.732Z,99801.16
2023-03-05T05:57:36.092Z,99800.86
2023-03-05T06:02:41.213Z,99797.20
2023-03-05T06:07:45.569Z,99794.02
2023-03-05T06:12:50.399Z,99790.84
2023-03-05T06:17:55.344Z,99790.29
2023-03-05T06:22:58.947Z,99784.64
2023-03-05T06:28:03.011Z,99779.69
2023-03-05T06:33:08.514Z,99770.45
2023-03-05T06:38:13.287Z,99773.34
2023-03-05T06:43:17.874Z,99764.20
2023-03-05T06:48:22.402Z,99764.56
2023-03-05T06:53:28.293Z,99763.52
2023-03-05T06:58:32.563Z,99772.95
2023-03-05T07:03:36.953Z,99771.74
2023-03-05T07:08:41.135Z,99771.00
2023-03-05T07:13:48.072Z,99773.57
2023-03-05T07:18:52.826Z,99767.83
2023-03-05T07:23:59.076Z,99768.77
2023-03-05T07:29:04.742Z,99763.90
2023-03-05T07:34:08.493Z,99760.27
2023-03-05T07:39:13.249Z,99757.88
2023-03-05T07:44:18.626Z,99750.92
2023-03-05T07:49:24.090Z,99752.39
2023-03-05T07:54:27.863Z,99747.75
2023-03-05T07:59:31.576Z,99751.86
2023-03-05T08:04:36.492Z,99747.19
2023-03-05T08:09:43.082Z,99741.33
2023-03-05T08:14:48.339Z,99743.91
2023-03-05T08:19:52.085Z,99744.67
2023-03-05T08:24:57.523Z,99743.55
2023-03-05T08:30:03.037Z,99752.65
2023-03-05T08:35:12.424Z,99754.36
2023-03-05T08:40:18.372Z,99755.70
2023-03-05T08:45:22.126Z,99753.73
2023-03-05T08:50:27.516Z,99754.23
2023-03-05T08:55:31.293Z,99751.60
2023-03-05T09:00:34.739Z,99752.85
2023-03-05T09:05:39.161Z,99749.19
2023-03-05T09:10:44.229Z,99748.63
2023-03-05T09:15:56.607Z,99750.58
2023-03-05T09:21:05.183Z,99748.19
2023-03-05T09:26:10.412Z,99746.98
2023-03-05T09:31:14.690Z,99750.84
2023-03-05T09:36:31.991Z,99749.06
2023-03-05T09:41:53.799Z,99751.34
2023-03-05T09:47:15.391Z,99744.52
2023-03-05T09:52:29.540Z,99746.50
2023-03-05T09:57:42.229Z,99741.86
2023-03-05T10:02:52.453Z,99742.67
2023-03-05T10:08:01.393Z,99738.30
2023-03-05T10:13:12.851Z,99730.09
2023-03-05T10:18:57.392Z,99722.43
2023-03-05T10:24:17.117Z,99719.94
2023-03-05T10:30:08.593Z,99713.30
2023-03-05T10:36:00.520Z,99705.20
2023-03-05T10:41:33.089Z,99699.94
2023-03-05T10:46:38.383Z,99685.98
2023-03-05T10:51:57.911Z,99679.59
2023-03-05T10:57:22.423Z,99676.26
2023-03-05T11:02:28.767Z,99668.23
2023-03-05T11:07:35.962Z,99672.63
2023-03-05T11:12:42.511Z,99674.17
2023-03-05T11:18:16.533Z,99664.91
2023-03-05T11:23:25.272Z,99660.18
2023-03-05T11:28:39.529Z,99651.45
2023-03-05T11:34:07.051Z,99642.77
2023-03-05T11:39:22.676Z,99633.88
2023-03-05T11:44:37.909Z,99623.27
2023-03-05T11:49:46.556Z,99620.02
2023-03-05T11:54:53.719Z,99616.35
2023-03-05T11:59:59.195Z,99609.73
2023-03-05T12:05:06.703Z,99602.13
2023-03-05T12:10:19.377Z,99603.20
2023-03-05T12:15:46.886Z,99603.45
2023-03-05T12:21:26.447Z,99611.20
2023-03-05T12:27:24.358Z,99602.73
2023-03-05T12:32:48.604Z,99597.27
2023-03-05T12:37:54.007Z,99599.80
2023-03-05T12:43:01.248Z,99589.50
2023-03-05T12:48:11.170Z,99581.55
2023-03-05T12:53:18.748Z,99578.80
2023-03-05T12:58:43.961Z,99566.75
2023-03-05T13:04:15.346Z,99576.26
2023-03-05T13:09:28.090Z,99570.64
2023-03-05T13:14:40.964Z,99569.55
2023-03-05T13:19:46.388Z,99571.40
2023-03-05T13:25:12.950Z,99569.42
2023-03-05T13:30:26.168Z,99575.58
2023-03-05T13:35:38.439Z,99568.16
2023-03-05T13:40:49.197Z,99567.80
2023-03-05T13:45:57.174Z,99572.14
2023-03-05T13:51:02.275Z,99590.98
2023-03-05T13:56:13.126Z,99597.02
2023-03-05T14:01:24.327Z,99589.55
2023-03-05T14:06:31.210Z,99592.52
2023-03-05T14:11:36.917Z,99581.16
2023-03-05T14:16:42.179Z,99571.05
2023-03-05T14:21:55.030Z,99569.06
2023-03-05T14:27:00.810Z,99565.65
2023-03-05T14:32:26.168Z,99558.20
2023-03-05T14:37:47.155Z,99554.31
2023-03-05T14:42:57.683Z,99561.21
2023-03-05T14:48:06.986Z,99557.31
2023-03-05T14:53:24.083Z,99558.52
2023-03-05T14:58:32.860Z,99560.31
2023-03-05T15:03:39.946Z,99553.23
2023-03-05T15:08:44.883Z,99554.21
2023-03-05T15:13:53.480Z,99550.22
2023-03-05T15:19:08.379Z,99557.76
2023-03-05T15:24:17.748Z,99558.44
2023-03-05T15:29:24.463Z,99561.15
2023-03-05T15:34:30.341Z,99563.90
2023-03-05T15:39:35.679Z,99560.45
2023-03-05T15:44:42.859Z,99556.91
2023-03-05T15:49:47.708Z,99560.52
2023-03-05T15:54:55.627Z,99554.38
2023-03-05T16:00:04.326Z,99549.70
2023-03-05T16:05:17.724Z,99552.02
2023-03-05T16:10:30.532Z,99548.30
2023-03-05T16:15:40.424Z,99549.89
2023-03-05T16:20:47.092Z,99547.17
2023-03-05T16:26:02.588Z,99543.19
2023-03-05T16:31:08.824Z,99547.76
2023-03-05T16:36:29.384Z,99542.90
2023-03-05T16:41:40.334Z,99548.44
2023-03-05T16:46:50.517Z,99547.59
2023-03-05T16:52:01.424Z,99547.64
2023-03-05T16:57:11.449Z,99541.77
2023-03-05T17:02:20.145Z,99546.38
2023-03-05T17:07:27.582Z,99550.72
2023-03-05T17:12:37.626Z,99560.50
2023-03-05T17:17:52.182Z,99566.04
2023-03-05T17:23:03.299Z,99574.05
2023-03-05T17:28:10.342Z,99575.19
2023-03-05T17:33:31.929Z,99574.34
2023-03-05T17:38:43.513Z,99575.77
2023-03-05T17:43:52.682Z,99579.92
2023-03-05T17:49:02.122Z,99572.90
2023-03-05T17:54:13.941Z,99572.02
2023-03-05T17:59:22.712Z,99564.73
2023-03-05T18:04:35.647Z,99557.33
2023-03-05T18:09:44.664Z,99550.77
2023-03-05T18:14:53.583Z,99547.80
2023-03-05T18:20:03.898Z,99539.65
2023-03-05T18:25:13.409Z,99544.65
2023-03-05T18:30:20.721Z,99541.96
2023-03-05T18:35:30.230Z,99540.14
2023-03-05T18:40:40.259Z,99536.94
2023-03-05T18:45:52.608Z,99530.17
2023-03-05T18:51:00.236Z,99535.25
2023-03-05T18:56:12.538Z,99533.05
2023-03-05T19:01:21.873Z,99531.00
2023-03-05T19:06:30.047Z,99537.91
2023-03-05T19:11:38.631Z,99534.64
2023-03-05T19:16:47.204Z,99534.98
2023-03-05T19:21:59.225Z,99533.38
2023-03-05T19:27:15.475Z,99528.87
2023-03-05T19:32:25.226Z,99526.98
2023-03-05T19:37:33.225Z,99523.94
2023-03-05T19:42:44.313Z,99518.89
2023-03-05T19:48:34.875Z,99513.16
2023-03-05T19:53:54.798Z,99517.02
2023-03-05T19:59:07.157Z,99521.59
2023-03-05T20:04:22.097Z,99522.74
2023-03-05T20:09:30.208Z,99521.96
2023-03-05T20:14:45.057Z,99516.38
2023-03-05T20:20:35.394Z,99515.23
2023-03-05T20:25:53.176Z,99515.45
2023-03-05T20:31:01.638Z,99506.37
2023-03-05T20:36:10.777Z,99507.73
2023-03-05T20:41:25.373Z,99508.74
2023-03-05T20:47:26.464Z,99508.67
2023-03-05T20:52:34.764Z,99508.52
2023-03-05T20:57:41.225Z,99506.80
2023-03-05T21:02:47.865Z,99507.22
2023-03-05T21:07:57.633Z,99502.88
2023-03-05T21:13:06.826Z,99505.08
2023-03-05T21:18:13.566Z,99499.54
2023-03-05T21:23:19.225Z,99499.93
2023-03-05T21:28:24.813Z,99498.67
2023-03-05T21:33:31.628Z,99494.70
2023-03-05T21:38:37.182Z,99493.05
2023-03-05T21:43:42.575Z,99487.11
2023-03-05T21:48:48.068Z,99484.80
2023-03-05T21:53:52.142Z,99479.56
2023-03-05T21:58:56.229Z,99473.74
2023-03-05T22:04:00.730Z,99476.08
2023-03-05T22:09:06.199Z,99472.09
2023-03-05T22:14:10.838Z,99465.98
2023-03-05T22:19:14.854Z,99457.36
2023-03-05T22:24:18.627Z,99451.37
2023-03-05T22:29:22.402Z,99446.88
2023-03-05T22:34:26.165Z,99441.36
2023-03-05T22:39:30.042Z,99438.23
2023-03-05T22:44:33.848Z,99437.45
2023-03-05T22:49:37.532Z,99435.30
2023-03-05T22:54:41.379Z,99434.56
2023-03-05T22:59:45.312Z,99435.75
2023-03-05T23:05:01.821Z,99430.16
2023-03-05T23:10:08.889Z,99425.01
2023-03-05T23:15:15.607Z,99421.88
2023-03-05T23:20:21.532Z,99425.73
2023-03-05T23:25:28.292Z,99424.48
2023-03-05T23:30:35.023Z,99423.57
2023-03-05T23:35:49.190Z,99427.47
2023-03-05T23:40:55.299Z,99429.05
2023-03-05T23:46:02.538Z,99424.86
2023-03-05T23:51:10.576Z,99420.10
2023-03-05T23:56:14.379Z,99418.21
